sensor_id;sensor_type;location;lat;lon;timestamp;pressure;altitude;pressure_sealevel;temperature;humidity
17060;BME280;8646;49.716;9.266;2022-11-02T00:02:54;100868.81;;;8.90;100.00
17060;BME280;8646;49.716;9.266;2022-11-02T00:05:58;100864.94;;;9.00;100.00
17060;BME280;8646;49.716;9.266;2022-11-02T00:09:01;100870.59;;;8.91;100.00
17060;BME280;8646;49.716;9.266;2022-11-02T00:12:05;100870.03;;;8.78;100.00
17060;BME280;8646;49.716;9.266;2022-11-02T00:15:09;100865.75;;;8.69;100.00
17060;BME280;8646;49.716;9.266;2022-11-02T00:18:13;100865.69;;;8.72;100.00
17060;BME280;8646;49.716;9.266;2022-11-02T00:21:19;100863.06;;;8.69;100.00
17060;BME280;8646;49.716;9.266;2022-11-02T00:24:23;100830.41;;;8.46;100.00
17060;BME280;8646;49.716;9.266;2022-11-02T00:27:27;100868.66;;;8.62;100.00
17060;BME280;8646;49.716;9.266;2022-11-02T00:30:30;100879.34;;;8.66;100.00
17060;BME280;8646;49.716;9.266;2022-11-02T00:33:33;100872.19;;;8.65;100.00
17060;BME280;8646;49.716;9.266;2022-11-02T00:36:37;100865.00;;;8.64;100.00
17060;BME280;8646;49.716;9.266;2022-11-02T00:39:40;100865.69;;;8.72;100.00
17060;BME280;8646;49.716;9.266;2022-11-02T00:42:43;100865.97;;;8.62;100.00
17060;BME280;8646;49.716;9.266;2022-11-02T00:45:46;100871.50;;;8.57;100.00
17060;BME280;8646;49.716;9.266;2022-11-02T00:48:49;100865.16;;;8.58;100.00
17060;BME280;8646;49.716;9.266;2022-11-02T00:51:54;100870.78;;;8.51;100.00
17060;BME280;8646;49.716;9.266;2022-11-02T00:54:56;100865.41;;;8.49;100.00
17060;BME280;8646;49.716;9.266;2022-11-02T00:57:59;100864.25;;;8.59;100.00
17060;BME280;8646;49.716;9.266;2022-11-02T01:01:03;100845.28;;;8.27;100.00
17060;BME280;8646;49.716;9.266;2022-11-02T01:04:06;100857.16;;;8.55;100.00
17060;BME280;8646;49.716;9.266;2022-11-02T01:07:11;100864.78;;;8.38;100.00
17060;BME280;8646;49.716;9.266;2022-11-02T01:10:14;100866.78;;;8.28;100.00
17060;BME280;8646;49.716;9.266;2022-11-02T01:13:16;100865.06;;;8.26;100.00
17060;BME280;8646;49.716;9.266;2022-11-02T01:16:19;100859.53;;;8.32;100.00
17060;BME280;8646;49.716;9.266;2022-11-02T01:19:22;100859.50;;;8.33;100.00
17060;BME280;8646;49.716;9.266;2022-11-02T01:22:27;100861.19;;;8.37;100.00
17060;BME280;8646;49.716;9.266;2022-11-02T01:25:29;100857.59;;;8.37;100.00
17060;BME280;8646;49.716;9.266;2022-11-02T01:28:32;100848.69;;;8.35;100.00
17060;BME280;8646;49.716;9.266;2022-11-02T01:31:35;100846.91;;;8.34;100.00
17060;BME280;8646;49.716;9.266;2022-11-02T01:34:38;100844.13;;;8.37;100.00
17060;BME280;8646;49.716;9.266;2022-11-02T01:37:42;100850.31;;;8.42;100.00
17060;BME280;8646;49.716;9.266;2022-11-02T01:40:46;100848.53;;;8.41;100.00
17060;BME280;8646;49.716;9.266;2022-11-02T01:43:50;100845.81;;;8.43;100.00
17060;BME280;8646;49.716;9.266;2022-11-02T01:46:57;100848.13;;;8.56;100.00
17060;BME280;8646;49.716;9.266;2022-11-02T01:50:05;100841.13;;;8.49;100.00
17060;BME280;8646;49.716;9.266;2022-11-02T01:53:11;100845.47;;;8.55;100.00
17060;BME280;8646;49.716;9.266;2022-11-02T01:56:17;100845.44;;;8.56;100.00
17060;BME280;8646;49.716;9.266;2022-11-02T01:59:26;100848.13;;;8.56;100.00
17060;BME280;8646;49.716;9.266;2022-11-02T02:02:31;100809.16;;;8.34;100.00
17060;BME280;8646;49.716;9.266;2022-11-02T02:05:39;100853.75;;;8.47;100.00
17060;BME280;8646;49.716;9.266;2022-11-02T02:08:47;100834.34;;;8.33;100.00
17060;BME280;8646;49.716;9.266;2022-11-02T02:11:51;100842.84;;;8.52;100.00
17060;BME280;8646;49.716;9.266;2022-11-02T02:14:54;100848.19;;;8.53;100.00
17060;BME280;8646;49.716;9.266;2022-11-02T02:18:00;100840.41;;;8.43;100.00
17060;BME280;8646;49.716;9.266;2022-11-02T02:21:16;100841.22;;;8.45;100.00
17060;BME280;8646;49.716;9.266;2022-11-02T02:24:34;100842.91;;;8.50;100.00
17060;BME280;8646;49.716;9.266;2022-11-02T02:27:54;100850.16;;;8.48;100.00
17060;BME280;8646;49.716;9.266;2022-11-02T02:31:07;100841.03;;;8.52;100.00
17060;BME280;8646;49.716;9.266;2022-11-02T02:34:18;100839.19;;;8.54;100.00
17060;BME280;8646;49.716;9.266;2022-11-02T02:37:25;100835.34;;;8.63;100.00
17060;BME280;8646;49.716;9.266;2022-11-02T02:40:33;100835.50;;;8.58;100.00
17060;BME280;8646;49.716;9.266;2022-11-02T02:43:41;100825.72;;;8.53;100.00
17060;BME280;8646;49.716;9.266;2022-11-02T02:46:49;100824.16;;;8.44;100.00
17060;BME280;8646;49.716;9.266;2022-11-02T02:50:02;100822.41;;;8.43;100.00
17060;BME280;8646;49.716;9.266;2022-11-02T02:53:07;100819.72;;;8.43;100.00
17060;BME280;8646;49.716;9.266;2022-11-02T02:56:11;100816.34;;;8.35;100.00
17060;BME280;8646;49.716;9.266;2022-11-02T02:59:20;100810.94;;;8.35;100.00
17060;BME280;8646;49.716;9.266;2022-11-02T03:02:27;100811.00;;;8.32;100.00
17060;BME280;8646;49.716;9.266;2022-11-02T03:05:33;100803.97;;;8.25;100.00
17060;BME280;8646;49.716;9.266;2022-11-02T03:08:38;100811.19;;;8.23;100.00
17060;BME280;8646;49.716;9.266;2022-11-02T03:11:47;100801.34;;;8.22;100.00
17060;BME280;8646;49.716;9.266;2022-11-02T03:15:03;100809.66;;;8.13;100.00
17060;BME280;8646;49.716;9.266;2022-11-02T03:18:16;100805.19;;;8.12;100.00
17060;BME280;8646;49.716;9.266;2022-11-02T03:21:27;100807.16;;;8.05;100.00
17060;BME280;8646;49.716;9.266;2022-11-02T03:24:34;100807.28;;;8.00;100.00
17060;BME280;8646;49.716;9.266;2022-11-02T03:27:49;100808.28;;;7.95;100.00
17060;BME280;8646;49.716;9.266;2022-11-02T03:31:04;100803.91;;;7.91;100.00
17060;BME280;8646;49.716;9.266;2022-11-02T03:34:17;100800.66;;;7.78;100.00
17060;BME280;8646;49.716;9.266;2022-11-02T03:37:23;100801.69;;;7.71;100.00
17060;BME280;8646;49.716;9.266;2022-11-02T03:40:29;100802.88;;;7.59;100.00
17060;BME280;8646;49.716;9.266;2022-11-02T03:43:35;100807.44;;;7.56;100.00
17060;BME280;8646;49.716;9.266;2022-11-02T03:46:42;100807.38;;;7.59;100.00
17060;BME280;8646;49.716;9.266;2022-11-02T03:49:47;100795.66;;;7.61;100.00
17060;BME280;8646;49.716;9.266;2022-11-02T03:52:55;100805.38;;;7.67;100.00
17060;BME280;8646;49.716;9.266;2022-11-02T03:56:03;100810.97;;;7.58;100.00
17060;BME280;8646;49.716;9.266;2022-11-02T03:59:07;100813.63;;;7.61;100.00
17060;BME280;8646;49.716;9.266;2022-11-02T04:02:13;100793.19;;;7.51;100.00
17060;BME280;8646;49.716;9.266;2022-11-02T04:05:16;100809.31;;;7.52;100.00
17060;BME280;8646;49.716;9.266;2022-11-02T04:08:25;100811.16;;;7.50;100.00
17060;BME280;8646;49.716;9.266;2022-11-02T04:11:32;100811.19;;;7.49;100.00
17060;BME280;8646;49.716;9.266;2022-11-02T04:14:52;100823.88;;;7.44;100.00
17060;BME280;8646;49.716;9.266;2022-11-02T04:17:56;100803.13;;;7.47;100.00
17060;BME280;8646;49.716;9.266;2022-11-02T04:21:17;100812.22;;;7.43;100.00
17060;BME280;8646;49.716;9.266;2022-11-02T04:24:19;100818.69;;;7.35;100.00
17060;BME280;8646;49.716;9.266;2022-11-02T04:27:40;100829.31;;;7.41;100.00
17060;BME280;8646;49.716;9.266;2022-11-02T04:30:42;100830.91;;;7.51;100.00
17060;BME280;8646;49.716;9.266;2022-11-02T04:33:47;100822.47;;;7.66;100.00
17060;BME280;8646;49.716;9.266;2022-11-02T04:36:50;100835.00;;;7.69;100.00
17060;BME280;8646;49.716;9.266;2022-11-02T04:39:52;100831.31;;;7.71;100.00
17060;BME280;8646;49.716;9.266;2022-11-02T04:42:54;100840.34;;;7.70;100.00
17060;BME280;8646;49.716;9.266;2022-11-02T04:45:57;100837.69;;;7.69;100.00
17060;BME280;8646;49.716;9.266;2022-11-02T04:49:02;100844.66;;;7.77;100.00
17060;BME280;8646;49.716;9.266;2022-11-02T04:52:05;100853.28;;;7.93;100.00
17060;BME280;8646;49.716;9.266;2022-11-02T04:55:08;100863.00;;;8.00;100.00
17060;BME280;8646;49.716;9.266;2022-11-02T04:58:11;100849.38;;;8.06;100.00
17060;BME280;8646;49.716;9.266;2022-11-02T05:01:15;100855.47;;;8.14;100.00
17060;BME280;8646;49.716;9.266;2022-11-02T05:04:19;100850.94;;;8.15;100.00
17060;BME280;8646;49.716;9.266;2022-11-02T05:07:22;100857.94;;;8.23;100.00
17060;BME280;8646;49.716;9.266;2022-11-02T05:10:25;100817.88;;;8.08;100.00
17060;BME280;8646;49.716;9.266;2022-11-02T05:13:28;100830.22;;;8.18;100.00
17060;BME280;8646;49.716;9.266;2022-11-02T05:16:31;100841.28;;;8.43;100.00
17060;BME280;8646;49.716;9.266;2022-11-02T05:19:35;100842.28;;;8.39;100.00
17060;BME280;8646;49.716;9.266;2022-11-02T05:22:40;100834.19;;;8.39;100.00
17060;BME280;8646;49.716;9.266;2022-11-02T05:25:51;100841.56;;;8.32;100.00
17060;BME280;8646;49.716;9.266;2022-11-02T05:28:53;100836.72;;;8.45;100.00
17060;BME280;8646;49.716;9.266;2022-11-02T05:31:57;100830.34;;;8.49;100.00
17060;BME280;8646;49.716;9.266;2022-11-02T05:35:01;100838.41;;;8.51;100.00
17060;BME280;8646;49.716;9.266;2022-11-02T05:38:04;100845.66;;;8.47;100.00
17060;BME280;8646;49.716;9.266;2022-11-02T05:41:08;100845.53;;;8.52;100.00
17060;BME280;8646;49.716;9.266;2022-11-02T05:44:11;100854.41;;;8.57;100.00
17060;BME280;8646;49.716;9.266;2022-11-02T05:47:13;100858.22;;;8.48;100.00
17060;BME280;8646;49.716;9.266;2022-11-02T05:50:18;100859.97;;;8.51;100.00
17060;BME280;8646;49.716;9.266;2022-11-02T05:53:21;100860.75;;;8.54;100.00
17060;BME280;8646;49.716;9.266;2022-11-02T05:56:24;100873.50;;;8.49;100.00
17060;BME280;8646;49.716;9.266;2022-11-02T05:59:27;100875.19;;;8.53;100.00
17060;BME280;8646;49.716;9.266;2022-11-02T06:02:29;100881.19;;;8.64;100.00
17060;BME280;8646;49.716;9.266;2022-11-02T06:05:34;100880.28;;;8.65;100.00
17060;BME280;8646;49.716;9.266;2022-11-02T06:08:37;100877.44;;;8.70;100.00
17060;BME280;8646;49.716;9.266;2022-11-02T06:11:40;100885.44;;;8.74;100.00
17060;BME280;8646;49.716;9.266;2022-11-02T06:14:44;100894.22;;;8.83;100.00
17060;BME280;8646;49.716;9.266;2022-11-02T06:17:47;100894.31;;;8.78;100.00
17060;BME280;8646;49.716;9.266;2022-11-02T06:20:51;100898.47;;;8.91;100.00
17060;BME280;8646;49.716;9.266;2022-11-02T06:23:54;100909.09;;;8.97;100.00
17060;BME280;8646;49.716;9.266;2022-11-02T06:27:00;100900.03;;;9.00;100.00
17060;BME280;8646;49.716;9.266;2022-11-02T06:30:03;100908.03;;;9.03;100.00
17060;BME280;8646;49.716;9.266;2022-11-02T06:33:07;100910.56;;;9.09;100.00
17060;BME280;8646;49.716;9.266;2022-11-02T06:36:12;100913.38;;;9.06;100.00
17060;BME280;8646;49.716;9.266;2022-11-02T06:39:15;100930.25;;;9.14;100.00
17060;BME280;8646;49.716;9.266;2022-11-02T06:42:18;100924.00;;;9.12;100.00
17060;BME280;8646;49.716;9.266;2022-11-02T06:45:20;100934.38;;;9.27;100.00
17060;BME280;8646;49.716;9.266;2022-11-02T06:48:24;100929.66;;;9.35;100.00
17060;BME280;8646;49.716;9.266;2022-11-02T06:51:36;100928.91;;;9.30;100.00
17060;BME280;8646;49.716;9.266;2022-11-02T06:54:39;100941.22;;;9.40;100.00
17060;BME280;8646;49.716;9.266;2022-11-02T06:57:43;100949.03;;;9.49;100.00
17060;BME280;8646;49.716;9.266;2022-11-02T07:00:46;100943.22;;;9.65;100.00
17060;BME280;8646;49.716;9.266;2022-11-02T07:03:49;100943.88;;;9.73;100.00
17060;BME280;8646;49.716;9.266;2022-11-02T07:06:53;100952.66;;;9.81;100.00
17060;BME280;8646;49.716;9.266;2022-11-02T07:09:56;100964.28;;;9.83;100.00
17060;BME280;8646;49.716;9.266;2022-11-02T07:12:59;100967.59;;;9.92;100.00
17060;BME280;8646;49.716;9.266;2022-11-02T07:16:04;100978.06;;;10.05;100.00
17060;BME280;8646;49.716;9.266;2022-11-02T07:19:07;100974.25;;;10.12;100.00
17060;BME280;8646;49.716;9.266;2022-11-02T07:22:11;100977.59;;;10.21;100.00
17060;BME280;8646;49.716;9.266;2022-11-02T07:25:14;100977.28;;;10.30;100.00
17060;BME280;8646;49.716;9.266;2022-11-02T07:28:17;100975.97;;;10.44;100.00
17060;BME280;8646;49.716;9.266;2022-11-02T07:31:20;100973.78;;;10.55;100.00
17060;BME280;8646;49.716;9.266;2022-11-02T07:34:23;100958.19;;;10.63;100.00
17060;BME280;8646;49.716;9.266;2022-11-02T07:37:27;100971.13;;;10.81;100.00
17060;BME280;8646;49.716;9.266;2022-11-02T07:40:31;100977.91;;;10.94;100.00
17060;BME280;8646;49.716;9.266;2022-11-02T07:43:34;100965.34;;;10.92;100.00
17060;BME280;8646;49.716;9.266;2022-11-02T07:46:43;100985.91;;;11.24;100.00
17060;BME280;8646;49.716;9.266;2022-11-02T07:49:46;100987.16;;;11.40;100.00
17060;BME280;8646;49.716;9.266;2022-11-02T07:52:51;100996.44;;;11.58;100.00
17060;BME280;8646;49.716;9.266;2022-11-02T07:55:54;100986.97;;;11.69;100.00
17060;BME280;8646;49.716;9.266;2022-11-02T07:58:57;100987.41;;;11.83;100.00
17060;BME280;8646;49.716;9.266;2022-11-02T08:02:01;100990.72;;;11.92;100.00
17060;BME280;8646;49.716;9.266;2022-11-02T08:05:04;101001.06;;;12.04;100.00
17060;BME280;8646;49.716;9.266;2022-11-02T08:08:11;101002.84;;;12.05;100.00
17060;BME280;8646;49.716;9.266;2022-11-02T08:11:15;101008.28;;;12.05;100.00
17060;BME280;8646;49.716;9.266;2022-11-02T08:14:18;100997.38;;;12.06;100.00
17060;BME280;8646;49.716;9.266;2022-11-02T08:17:21;101004.28;;;12.15;100.00
17060;BME280;8646;49.716;9.266;2022-11-02T08:20:23;101014.66;;;12.27;100.00
17060;BME280;8646;49.716;9.266;2022-11-02T08:23:28;101012.47;;;12.37;100.00
17060;BME280;8646;49.716;9.266;2022-11-02T08:26:30;101018.59;;;12.42;100.00
17060;BME280;8646;49.716;9.266;2022-11-02T08:29:33;101013.94;;;12.45;100.00
17060;BME280;8646;49.716;9.266;2022-11-02T08:32:37;101015.47;;;12.52;100.00
17060;BME280;8646;49.716;9.266;2022-11-02T08:35:40;101020.41;;;12.65;100.00
17060;BME280;8646;49.716;9.266;2022-11-02T08:38:45;101024.69;;;12.70;100.00
17060;BME280;8646;49.716;9.266;2022-11-02T08:41:48;101031.75;;;12.74;100.00
17060;BME280;8646;49.716;9.266;2022-11-02T08:44:51;101037.84;;;12.81;100.00
17060;BME280;8646;49.716;9.266;2022-11-02T08:47:54;101035.81;;;12.86;100.00
17060;BME280;8646;49.716;9.266;2022-11-02T08:50:57;101028.25;;;12.94;100.00
17060;BME280;8646;49.716;9.266;2022-11-02T08:54:01;101027.66;;;13.08;99.30
17060;BME280;8646;49.716;9.266;2022-11-02T08:57:04;101027.25;;;13.18;98.72
17060;BME280;8646;49.716;9.266;2022-11-02T09:00:08;101031.59;;;13.22;97.85
17060;BME280;8646;49.716;9.266;2022-11-02T09:03:12;101033.69;;;13.16;97.06
17060;BME280;8646;49.716;9.266;2022-11-02T09:06:15;101028.31;;;13.14;95.87
17060;BME280;8646;49.716;9.266;2022-11-02T09:09:19;101025.78;;;13.10;94.71
17060;BME280;8646;49.716;9.266;2022-11-02T09:12:22;101025.16;;;13.03;94.68
17060;BME280;8646;49.716;9.266;2022-11-02T09:15:25;101022.38;;;13.05;94.19
17060;BME280;8646;49.716;9.266;2022-11-02T09:18:28;101021.94;;;13.15;92.99
17060;BME280;8646;49.716;9.266;2022-11-02T09:21:31;101022.94;;;13.34;92.89
17060;BME280;8646;49.716;9.266;2022-11-02T09:24:35;101023.47;;;13.63;91.00
17060;BME280;8646;49.716;9.266;2022-11-02T09:27:39;101010.19;;;13.77;87.87
17060;BME280;8646;49.716;9.266;2022-11-02T09:30:42;101016.50;;;13.78;87.50
17060;BME280;8646;49.716;9.266;2022-11-02T09:33:45;101013.56;;;13.82;87.14
17060;BME280;8646;49.716;9.266;2022-11-02T09:36:49;101010.97;;;13.79;85.22
17060;BME280;8646;49.716;9.266;2022-11-02T09:39:54;101012.00;;;13.77;85.72
17060;BME280;8646;49.716;9.266;2022-11-02T09:43:05;100996.63;;;13.75;84.57
17060;BME280;8646;49.716;9.266;2022-11-02T09:46:17;100998.81;;;13.67;85.09
17060;BME280;8646;49.716;9.266;2022-11-02T09:49:22;100999.69;;;13.68;85.60
17060;BME280;8646;49.716;9.266;2022-11-02T09:52:30;101009.34;;;13.75;83.94
17060;BME280;8646;49.716;9.266;2022-11-02T09:55:41;101016.22;;;13.84;83.73
17060;BME280;8646;49.716;9.266;2022-11-02T09:58:57;101015.75;;;13.94;83.27
17060;BME280;8646;49.716;9.266;2022-11-02T10:02:08;101006.03;;;14.07;78.45
17060;BME280;8646;49.716;9.266;2022-11-02T10:05:29;101013.97;;;14.12;78.87
17060;BME280;8646;49.716;9.266;2022-11-02T10:08:37;101014.44;;;14.22;76.69
17060;BME280;8646;49.716;9.266;2022-11-02T10:11:52;101011.88;;;14.19;76.19
17060;BME280;8646;49.716;9.266;2022-11-02T10:15:02;101005.03;;;14.29;75.86
17060;BME280;8646;49.716;9.266;2022-11-02T10:18:12;101002.50;;;14.44;72.35
17060;BME280;8646;49.716;9.266;2022-11-02T10:21:19;100997.94;;;14.45;72.18
17060;BME280;8646;49.716;9.266;2022-11-02T10:24:24;101003.09;;;14.51;72.86
17060;BME280;8646;49.716;9.266;2022-11-02T10:27:31;100985.50;;;14.58;73.26
17060;BME280;8646;49.716;9.266;2022-11-02T10:30:37;101012.75;;;14.94;71.18
17060;BME280;8646;49.716;9.266;2022-11-02T10:33:40;101008.47;;;15.07;70.23
17060;BME280;8646;49.716;9.266;2022-11-02T10:36:52;101001.44;;;15.20;68.20
17060;BME280;8646;49.716;9.266;2022-11-02T10:40:04;101007.13;;;15.16;70.89
17060;BME280;8646;49.716;9.266;2022-11-02T10:43:21;101007.69;;;15.22;69.93
17060;BME280;8646;49.716;9.266;2022-11-02T10:46:48;101001.91;;;15.11;68.77
17060;BME280;8646;49.716;9.266;2022-11-02T10:50:07;101013.03;;;15.07;70.99
17060;BME280;8646;49.716;9.266;2022-11-02T10:53:16;101016.47;;;15.10;71.68
17060;BME280;8646;49.716;9.266;2022-11-02T10:56:41;101011.09;;;15.09;71.06
17060;BME280;8646;49.716;9.266;2022-11-02T11:00:20;101012.72;;;15.13;70.58
17060;BME280;8646;49.716;9.266;2022-11-02T11:03:24;101022.91;;;15.09;69.22
17060;BME280;8646;49.716;9.266;2022-11-02T11:06:30;101025.22;;;15.00;70.50
17060;BME280;8646;49.716;9.266;2022-11-02T11:09:38;101014.59;;;14.94;70.71
17060;BME280;8646;49.716;9.266;2022-11-02T11:12:47;101021.13;;;14.91;70.15
17060;BME280;8646;49.716;9.266;2022-11-02T11:15:52;101033.16;;;14.85;70.66
17060;BME280;8646;49.716;9.266;2022-11-02T11:18:54;101015.75;;;14.71;71.29
17060;BME280;8646;49.716;9.266;2022-11-02T11:22:26;101013.53;;;14.60;69.97
17060;BME280;8646;49.716;9.266;2022-11-02T11:25:29;101006.03;;;14.46;70.91
17060;BME280;8646;49.716;9.266;2022-11-02T11:28:37;101000.88;;;14.40;69.30
17060;BME280;8646;49.716;9.266;2022-11-02T11:31:43;100999.88;;;14.23;69.57
17060;BME280;8646;49.716;9.266;2022-11-02T11:34:53;101002.97;;;14.15;69.80
17060;BME280;8646;49.716;9.266;2022-11-02T11:38:00;100997.88;;;14.07;70.25
17060;BME280;8646;49.716;9.266;2022-11-02T11:41:05;100995.97;;;14.09;69.39
17060;BME280;8646;49.716;9.266;2022-11-02T11:44:09;100994.03;;;14.11;67.74
17060;BME280;8646;49.716;9.266;2022-11-02T11:47:15;100983.63;;;14.21;68.83
17060;BME280;8646;49.716;9.266;2022-11-02T11:50:18;100985.38;;;14.42;68.41
17060;BME280;8646;49.716;9.266;2022-11-02T11:53:25;100974.63;;;14.58;67.54
17060;BME280;8646;49.716;9.266;2022-11-02T11:56:28;100977.91;;;14.83;65.27
17060;BME280;8646;49.716;9.266;2022-11-02T11:59:44;100978.72;;;15.03;61.57
17060;BME280;8646;49.716;9.266;2022-11-02T12:03:01;100980.81;;;15.15;60.46
17060;BME280;8646;49.716;9.266;2022-11-02T12:06:12;100963.19;;;15.22;60.42
17060;BME280;8646;49.716;9.266;2022-11-02T12:09:24;100957.16;;;15.33;58.85
17060;BME280;8646;49.716;9.266;2022-11-02T12:12:37;100961.25;;;15.41;59.86
17060;BME280;8646;49.716;9.266;2022-11-02T12:15:52;100968.94;;;15.50;58.78
17060;BME280;8646;49.716;9.266;2022-11-02T12:19:11;100945.09;;;15.55;58.93
17060;BME280;8646;49.716;9.266;2022-11-02T12:22:23;100946.59;;;15.61;59.16
17060;BME280;8646;49.716;9.266;2022-11-02T12:25:39;100935.41;;;15.65;60.75
17060;BME280;8646;49.716;9.266;2022-11-02T12:28:57;100929.66;;;15.72;60.94
17060;BME280;8646;49.716;9.266;2022-11-02T12:32:17;100939.34;;;15.77;60.20
17060;BME280;8646;49.716;9.266;2022-11-02T12:35:36;100929.25;;;15.79;60.53
17060;BME280;8646;49.716;9.266;2022-11-02T12:38:59;100925.44;;;15.82;59.96
17060;BME280;8646;49.716;9.266;2022-11-02T12:42:15;100923.50;;;15.84;58.49
17060;BME280;8646;49.716;9.266;2022-11-02T12:45:38;100918.06;;;15.84;59.27
17060;BME280;8646;49.716;9.266;2022-11-02T12:48:52;100934.09;;;15.90;60.36
17060;BME280;8646;49.716;9.266;2022-11-02T12:52:06;100938.34;;;15.95;60.48
17060;BME280;8646;49.716;9.266;2022-11-02T12:55:15;100929.09;;;15.98;60.22
17060;BME280;8646;49.716;9.266;2022-11-02T12:58:22;100934.66;;;15.96;59.60
17060;BME280;8646;49.716;9.266;2022-11-02T13:01:30;100921.59;;;15.86;60.08
17060;BME280;8646;49.716;9.266;2022-11-02T13:04:39;100935.59;;;15.80;60.13
17060;BME280;8646;49.716;9.266;2022-11-02T13:07:51;100930.34;;;15.75;59.86
17060;BME280;8646;49.716;9.266;2022-11-02T13:10:58;100927.97;;;15.69;59.21
17060;BME280;8646;49.716;9.266;2022-11-02T13:14:05;100918.00;;;15.51;59.81
17060;BME280;8646;49.716;9.266;2022-11-02T13:17:19;100926.19;;;15.51;61.00
17060;BME280;8646;49.716;9.266;2022-11-02T13:20:25;100955.13;;;15.55;61.32
17060;BME280;8646;49.716;9.266;2022-11-02T13:23:34;100939.75;;;15.52;60.70
17060;BME280;8646;49.716;9.266;2022-11-02T13:26:42;100934.44;;;15.49;60.75
17060;BME280;8646;49.716;9.266;2022-11-02T13:29:48;100921.00;;;15.46;61.60
17060;BME280;8646;49.716;9.266;2022-11-02T13:32:57;100922.03;;;15.44;60.07
17060;BME280;8646;49.716;9.266;2022-11-02T13:36:20;100935.75;;;15.42;60.30
17060;BME280;8646;49.716;9.266;2022-11-02T13:39:30;100915.06;;;15.38;58.51
17060;BME280;8646;49.716;9.266;2022-11-02T13:42:50;100938.72;;;15.38;59.62
17060;BME280;8646;49.716;9.266;2022-11-02T13:46:17;100926.13;;;15.35;59.29
17060;BME280;8646;49.716;9.266;2022-11-02T13:49:28;100933.50;;;15.33;59.67
17060;BME280;8646;49.716;9.266;2022-11-02T13:52:36;100931.59;;;15.35;58.77
17060;BME280;8646;49.716;9.266;2022-11-02T13:55:43;100928.28;;;15.46;55.82
17060;BME280;8646;49.716;9.266;2022-11-02T13:58:53;100928.84;;;15.35;58.07
17060;BME280;8646;49.716;9.266;2022-11-02T14:02:00;100927.91;;;15.36;58.31
17060;BME280;8646;49.716;9.266;2022-11-02T14:05:04;100926.84;;;15.39;57.78
17060;BME280;8646;49.716;9.266;2022-11-02T14:08:09;100914.88;;;15.41;57.45
17060;BME280;8646;49.716;9.266;2022-11-02T14:11:35;100926.84;;;15.39;58.30
17060;BME280;8646;49.716;9.266;2022-11-02T14:14:38;100926.13;;;15.35;59.17
17060;BME280;8646;49.716;9.266;2022-11-02T14:17:56;100926.47;;;15.29;58.63
17060;BME280;8646;49.716;9.266;2022-11-02T14:21:39;100912.34;;;15.21;57.36
17060;BME280;8646;49.716;9.266;2022-11-02T14:25:06;100914.91;;;15.07;58.61
17060;BME280;8646;49.716;9.266;2022-11-02T14:28:32;100910.91;;;14.97;59.46
17060;BME280;8646;49.716;9.266;2022-11-02T14:31:53;100920.50;;;14.86;60.76
17060;BME280;8646;49.716;9.266;2022-11-02T14:35:13;100903.84;;;14.75;60.98
17060;BME280;8646;49.716;9.266;2022-11-02T14:38:38;100925.03;;;14.69;61.58
17060;BME280;8646;49.716;9.266;2022-11-02T14:42:02;100932.69;;;14.61;62.27
17060;BME280;8646;49.716;9.266;2022-11-02T14:45:28;100924.13;;;14.51;62.66
17060;BME280;8646;49.716;9.266;2022-11-02T14:48:44;100921.84;;;14.42;63.42
17060;BME280;8646;49.716;9.266;2022-11-02T14:51:56;100916.81;;;14.33;64.25
17060;BME280;8646;49.716;9.266;2022-11-02T14:55:07;100931.75;;;14.24;64.13
17060;BME280;8646;49.716;9.266;2022-11-02T14:58:18;100934.91;;;14.15;64.23
17060;BME280;8646;49.716;9.266;2022-11-02T15:01:23;100937.88;;;14.10;64.11
17060;BME280;8646;49.716;9.266;2022-11-02T15:04:27;100940.78;;;14.06;63.80
17060;BME280;8646;49.716;9.266;2022-11-02T15:07:34;100925.66;;;14.00;63.59
17060;BME280;8646;49.716;9.266;2022-11-02T15:10:43;100924.81;;;13.98;62.87
17060;BME280;8646;49.716;9.266;2022-11-02T15:13:46;100919.53;;;13.95;63.29
17060;BME280;8646;49.716;9.266;2022-11-02T15:16:50;100913.56;;;13.87;64.12
17060;BME280;8646;49.716;9.266;2022-11-02T15:20:19;100931.19;;;13.79;64.41
17060;BME280;8646;49.716;9.266;2022-11-02T15:23:27;100934.88;;;13.78;64.92
17060;BME280;8646;49.716;9.266;2022-11-02T15:26:39;100912.31;;;13.55;65.80
17060;BME280;8646;49.716;9.266;2022-11-02T15:29:43;100923.38;;;13.52;66.79
17060;BME280;8646;49.716;9.266;2022-11-02T15:32:50;100936.19;;;13.49;67.51
17060;BME280;8646;49.716;9.266;2022-11-02T15:36:03;100946.81;;;13.34;68.76
17060;BME280;8646;49.716;9.266;2022-11-02T15:39:09;100939.34;;;13.19;70.04
17060;BME280;8646;49.716;9.266;2022-11-02T15:42:19;100936.38;;;13.04;70.91
17060;BME280;8646;49.716;9.266;2022-11-02T15:45:44;100947.13;;;12.85;71.88
17060;BME280;8646;49.716;9.266;2022-11-02T15:49:12;100951.31;;;12.72;72.90
17060;BME280;8646;49.716;9.266;2022-11-02T15:52:36;100945.66;;;12.56;73.78
17060;BME280;8646;49.716;9.266;2022-11-02T15:56:15;100944.50;;;12.40;74.32
17060;BME280;8646;49.716;9.266;2022-11-02T15:59:32;100945.97;;;12.25;74.66
17060;BME280;8646;49.716;9.266;2022-11-02T16:02:39;100948.25;;;12.14;75.64
17060;BME280;8646;49.716;9.266;2022-11-02T16:05:45;100940.50;;;12.03;76.06
17060;BME280;8646;49.716;9.266;2022-11-02T16:08:52;100943.53;;;11.96;76.48
17060;BME280;8646;49.716;9.266;2022-11-02T16:12:02;100940.31;;;11.84;76.80
17060;BME280;8646;49.716;9.266;2022-11-02T16:15:13;100945.16;;;11.76;77.00
17060;BME280;8646;49.716;9.266;2022-11-02T16:18:24;100941.00;;;11.66;77.24
17060;BME280;8646;49.716;9.266;2022-11-02T16:21:29;100944.91;;;11.59;78.10
17060;BME280;8646;49.716;9.266;2022-11-02T16:24:31;100948.88;;;11.49;78.43
17060;BME280;8646;49.716;9.266;2022-11-02T16:27:35;100951.75;;;11.44;78.43
17060;BME280;8646;49.716;9.266;2022-11-02T16:30:38;100942.94;;;11.38;78.69
17060;BME280;8646;49.716;9.266;2022-11-02T16:33:43;100926.53;;;11.18;78.90
17060;BME280;8646;49.716;9.266;2022-11-02T16:36:48;100946.22;;;11.23;79.39